createdAt,value
2019-05-26T00:00:09.978Z,100788.48
2019-05-26T00:02:36.596Z,100777.59
2019-05-26T00:05:05.263Z,100775.98
2019-05-26T00:07:31.514Z,100774.32
2019-05-26T00:09:57.859Z,100779.41
2019-05-26T00:12:23.956Z,100778.68
2019-05-26T00:14:50.055Z,100764.28
2019-05-26T00:17:17.411Z,100771.30
2019-05-26T00:19:43.653Z,100779.98
2019-05-26T00:22:09.966Z,100777.45
2019-05-26T00:24:36.197Z,100772.72
2019-05-26T00:27:02.906Z,100774.84
2019-05-26T00:29:29.098Z,100769.83
2019-05-26T00:31:55.611Z,100764.13
2019-05-26T00:34:22.021Z,100767.14
2019-05-26T00:36:48.247Z,100756.80
2019-05-26T00:39:14.380Z,100763.23
2019-05-26T00:41:40.704Z,100756.72
2019-05-26T00:44:06.946Z,100759.33
2019-05-26T00:46:33.365Z,100758.77
2019-05-26T00:48:59.893Z,100759.92
2019-05-26T00:51:26.134Z,100760.00
2019-05-26T00:53:52.324Z,100759.28
2019-05-26T00:56:18.566Z,100749.00
2019-05-26T00:58:44.667Z,100749.00
2019-05-26T01:01:11.076Z,100758.54
2019-05-26T01:03:37.660Z,100758.34
2019-05-26T01:06:03.975Z,100753.94
2019-05-26T01:08:30.160Z,100754.63
2019-05-26T01:10:56.360Z,100753.25
2019-05-26T01:13:22.473Z,100757.16
2019-05-26T01:15:48.797Z,100757.66
2019-05-26T01:18:15.950Z,100750.30
2019-05-26T01:20:42.231Z,100751.81
2019-05-26T01:23:08.366Z,100754.58
2019-05-26T01:25:34.561Z,100752.41
2019-05-26T01:28:00.865Z,100756.44
2019-05-26T01:30:37.568Z,100756.75
2019-05-26T01:33:04.773Z,100751.25
2019-05-26T01:35:31.279Z,100753.84
2019-05-26T01:37:58.282Z,100755.29
2019-05-26T01:40:36.313Z,100752.09
2019-05-26T01:43:02.600Z,100752.09
2019-05-26T01:45:28.840Z,100745.81
2019-05-26T01:47:55.036Z,100740.31
2019-05-26T01:50:21.323Z,100740.31
2019-05-26T01:52:47.598Z,100748.80
2019-05-26T01:55:13.683Z,100743.80
2019-05-26T01:57:40.098Z,100741.63
2019-05-26T02:00:07.754Z,100727.38
2019-05-26T02:02:34.243Z,100727.38
2019-05-26T02:05:00.474Z,100733.96
2019-05-26T02:07:26.778Z,100732.38
2019-05-26T02:09:53.147Z,100729.27
2019-05-26T02:12:19.348Z,100731.56
2019-05-26T02:14:45.660Z,100728.84
2019-05-26T02:17:11.994Z,100717.98
2019-05-26T02:19:38.316Z,100717.98
2019-05-26T02:22:05.134Z,100720.30
2019-05-26T02:24:31.462Z,100720.30
2019-05-26T02:26:57.702Z,100713.22
2019-05-26T02:29:23.802Z,100713.22
2019-05-26T02:31:50.133Z,100720.66
2019-05-26T02:34:16.344Z,100717.86
2019-05-26T02:36:42.535Z,100713.92
2019-05-26T02:39:08.796Z,100708.64
2019-05-26T02:41:35.072Z,100711.78
2019-05-26T02:44:01.265Z,100717.18
2019-05-26T02:46:27.437Z,100716.33
2019-05-26T02:48:53.569Z,100711.78
2019-05-26T02:51:19.801Z,100709.83
2019-05-26T02:53:46.081Z,100705.20
2019-05-26T02:56:12.800Z,100709.96
2019-05-26T02:58:38.978Z,100710.55
2019-05-26T03:01:05.288Z,100707.22
2019-05-26T03:03:31.533Z,100706.12
2019-05-26T03:05:58.307Z,100707.91
2019-05-26T03:08:25.197Z,100699.91
2019-05-26T03:10:53.203Z,100708.28
2019-05-26T03:13:19.516Z,100702.95
2019-05-26T03:15:46.097Z,100709.09
2019-05-26T03:18:12.795Z,100702.65
2019-05-26T03:20:40.052Z,100708.30
2019-05-26T03:23:07.468Z,100699.62
2019-05-26T03:25:35.181Z,100702.67
2019-05-26T03:28:01.459Z,100697.47
2019-05-26T03:30:27.616Z,100698.89
2019-05-26T03:32:53.866Z,100702.39
2019-05-26T03:35:19.981Z,100683.23
2019-05-26T03:37:46.091Z,100683.23
2019-05-26T03:40:12.503Z,100683.31
2019-05-26T03:42:38.828Z,100690.67
2019-05-26T03:45:07.136Z,100689.34
2019-05-26T03:47:33.376Z,100688.64
2019-05-26T03:49:59.682Z,100683.28
2019-05-26T03:52:25.799Z,100686.55
2019-05-26T03:54:51.928Z,100686.55
2019-05-26T03:57:18.141Z,100670.59
2019-05-26T03:59:44.273Z,100670.59
2019-05-26T04:02:10.576Z,100674.78
2019-05-26T04:04:36.894Z,100678.02
2019-05-26T04:07:03.276Z,100673.61
2019-05-26T04:09:29.605Z,100677.59
2019-05-26T04:11:55.801Z,100674.48
2019-05-26T04:14:22.188Z,100671.09
2019-05-26T04:16:48.309Z,100667.55
2019-05-26T04:19:14.606Z,100669.34
2019-05-26T04:21:40.760Z,100668.17
2019-05-26T04:24:06.836Z,100669.69
2019-05-26T04:26:33.105Z,100664.37
2019-05-26T04:28:59.308Z,100660.23
2019-05-26T04:31:25.621Z,100664.35
2019-05-26T04:33:51.735Z,100659.86
2019-05-26T04:36:17.824Z,100667.82
2019-05-26T04:38:44.144Z,100661.14
2019-05-26T04:41:10.265Z,100663.13
2019-05-26T04:43:36.459Z,100658.23
2019-05-26T04:46:03.904Z,100657.81
2019-05-26T04:48:30.125Z,100655.58
2019-05-26T04:50:56.476Z,100663.16
2019-05-26T04:53:22.595Z,100662.05
2019-05-26T04:55:48.898Z,100662.72
2019-05-26T04:58:15.014Z,100666.00
2019-05-26T05:00:41.151Z,100670.40
2019-05-26T05:03:07.523Z,100680.34
2019-05-26T05:05:33.746Z,100676.28
2019-05-26T05:07:59.889Z,100679.55
2019-05-26T05:10:41.271Z,100671.01
2019-05-26T05:12:54.238Z,100672.17
2019-05-26T05:15:20.550Z,100671.98
2019-05-26T05:17:46.692Z,100670.10
2019-05-26T05:20:13.025Z,100667.09
2019-05-26T05:22:39.213Z,100667.98
2019-05-26T05:25:13.846Z,100672.70
2019-05-26T05:27:35.159Z,100670.72
2019-05-26T05:30:03.549Z,100663.02
2019-05-26T05:32:32.814Z,100674.05
2019-05-26T05:34:57.934Z,100670.71
2019-05-26T05:37:25.236Z,100663.45
2019-05-26T05:39:51.895Z,100670.47
2019-05-26T05:42:18.205Z,100663.16
2019-05-26T05:44:44.369Z,100665.00
2019-05-26T05:47:10.618Z,100665.57
2019-05-26T05:49:36.997Z,100652.20
2019-05-26T05:52:03.654Z,100653.16
2019-05-26T05:54:29.890Z,100651.72
2019-05-26T05:56:56.106Z,100644.11
2019-05-26T05:59:22.343Z,100648.47
2019-05-26T06:01:48.698Z,100646.77
2019-05-26T06:04:15.138Z,100643.08
2019-05-26T06:06:41.394Z,100648.78
2019-05-26T06:09:07.695Z,100644.94
2019-05-26T06:11:33.918Z,100648.89
2019-05-26T06:14:00.202Z,100637.30
2019-05-26T06:16:26.308Z,100640.92
2019-05-26T06:18:52.514Z,100645.19
2019-05-26T06:21:18.668Z,100636.94
2019-05-26T06:23:44.981Z,100645.02
2019-05-26T06:26:11.290Z,100638.64
2019-05-26T06:28:37.711Z,100640.71
2019-05-26T06:31:04.121Z,100638.69
2019-05-26T06:33:31.514Z,100640.58
2019-05-26T06:35:57.814Z,100639.72
2019-05-26T06:38:25.730Z,100647.76
2019-05-26T06:40:52.010Z,100651.16
2019-05-26T06:43:18.313Z,100646.91
2019-05-26T06:45:44.544Z,100644.19
2019-05-26T06:48:10.838Z,100648.61
2019-05-26T06:50:37.140Z,100652.95
2019-05-26T06:53:03.349Z,100654.00
2019-05-26T06:55:29.711Z,100649.73
2019-05-26T06:57:55.967Z,100651.41
2019-05-26T07:00:22.249Z,100647.55
2019-05-26T07:02:48.578Z,100647.64
2019-05-26T07:05:18.406Z,100655.02
2019-05-26T07:07:43.704Z,100643.55
2019-05-26T07:10:10.035Z,100644.39
2019-05-26T07:12:36.273Z,100642.38
2019-05-26T07:15:05.148Z,100641.10
2019-05-26T07:17:31.377Z,100642.55
2019-05-26T07:19:57.567Z,100646.10
2019-05-26T07:22:23.813Z,100643.11
2019-05-26T07:24:50.053Z,100636.66
2019-05-26T07:27:16.432Z,100629.39
2019-05-26T07:29:42.549Z,100637.26
2019-05-26T07:32:08.936Z,100636.81
2019-05-26T07:34:35.139Z,100643.47
2019-05-26T07:37:01.479Z,100637.81
2019-05-26T07:39:27.761Z,100639.17
2019-05-26T07:42:09.479Z,100631.27
2019-05-26T07:44:23.280Z,100640.07
2019-05-26T07:46:49.625Z,100637.45
2019-05-26T07:49:15.926Z,100640.97
2019-05-26T07:51:42.124Z,100646.14
2019-05-26T07:54:24.306Z,100648.80
2019-05-26T07:56:36.422Z,100643.52
2019-05-26T07:59:02.885Z,100643.55
2019-05-26T08:01:35.635Z,100638.72
2019-05-26T08:03:57.298Z,100630.44
2019-05-26T08:06:23.520Z,100644.44
2019-05-26T08:08:49.872Z,100643.94
2019-05-26T08:11:16.162Z,100637.39
2019-05-26T08:13:42.368Z,100651.41
2019-05-26T08:16:08.589Z,100635.27
2019-05-26T08:18:34.974Z,100635.27
2019-05-26T08:21:01.355Z,100628.25
2019-05-26T08:23:27.480Z,100624.75
2019-05-26T08:25:53.889Z,100619.06
2019-05-26T08:28:20.096Z,100615.98
2019-05-26T08:30:46.201Z,100615.56
2019-05-26T08:33:12.367Z,100613.73
2019-05-26T08:35:38.666Z,100609.34
2019-05-26T08:38:04.979Z,100613.74
2019-05-26T08:40:31.218Z,100612.48
2019-05-26T08:42:57.393Z,100615.55
2019-05-26T08:45:23.626Z,100614.69
2019-05-26T08:47:50.354Z,100607.64
2019-05-26T08:50:17.285Z,100609.84
2019-05-26T08:52:43.613Z,100610.29
2019-05-26T08:55:10.430Z,100600.65
2019-05-26T08:57:36.668Z,100603.30
2019-05-26T09:00:05.680Z,100599.34
2019-05-26T09:02:32.119Z,100598.02
2019-05-26T09:04:58.429Z,100591.00
2019-05-26T09:07:24.667Z,100590.13
2019-05-26T09:09:50.956Z,100588.81
2019-05-26T09:12:17.462Z,100582.69
2019-05-26T09:14:43.593Z,100581.33
2019-05-26T09:17:09.918Z,100580.87
2019-05-26T09:19:36.236Z,100590.98
2019-05-26T09:22:03.515Z,100577.41
2019-05-26T09:24:29.878Z,100584.80
2019-05-26T09:26:56.405Z,100576.92
2019-05-26T09:29:22.772Z,100581.27
2019-05-26T09:31:48.856Z,100585.71
2019-05-26T09:34:15.076Z,100584.83
2019-05-26T09:36:41.215Z,100584.40
2019-05-26T09:39:07.737Z,100583.09
2019-05-26T09:41:34.230Z,100585.73
2019-05-26T09:44:00.652Z,100585.30
2019-05-26T09:46:26.768Z,100583.97
2019-05-26T09:48:53.533Z,100580.46
2019-05-26T09:51:19.788Z,100583.08
2019-05-26T09:53:59.054Z,100585.70
2019-05-26T09:56:14.185Z,100572.09
2019-05-26T09:58:43.295Z,100574.30
2019-05-26T10:01:09.870Z,100567.71
2019-05-26T10:03:36.186Z,100572.09
2019-05-26T10:06:02.943Z,100567.73
2019-05-26T10:08:29.653Z,100565.07
2019-05-26T10:10:56.045Z,100566.82
2019-05-26T10:13:31.444Z,100558.88
2019-05-26T10:15:50.626Z,100558.90
2019-05-26T10:18:17.030Z,100553.09
2019-05-26T10:20:43.554Z,100556.59
2019-05-26T10:23:09.899Z,100555.66
2019-05-26T10:25:36.011Z,100551.25
2019-05-26T10:28:02.527Z,100548.94
2019-05-26T10:30:28.647Z,100545.81
2019-05-26T10:32:55.002Z,100544.00
2019-05-26T10:35:21.395Z,100537.91
2019-05-26T10:37:47.935Z,100534.77
2019-05-26T10:40:14.551Z,100545.72
2019-05-26T10:42:40.880Z,100547.45
2019-05-26T10:45:08.170Z,100543.02
2019-05-26T10:47:35.721Z,100543.58
2019-05-26T10:50:05.641Z,100540.86
2019-05-26T10:52:31.895Z,100531.60
2019-05-26T10:54:58.142Z,100534.20
2019-05-26T10:57:24.607Z,100541.61
2019-05-26T10:59:51.136Z,100528.42
2019-05-26T11:02:17.355Z,100531.06
2019-05-26T11:04:43.651Z,100529.35
2019-05-26T11:07:09.981Z,100523.39
2019-05-26T11:09:36.409Z,100519.89
2019-05-26T11:12:03.560Z,100526.30
2019-05-26T11:14:29.927Z,100525.13
2019-05-26T11:16:56.181Z,100513.52
2019-05-26T11:19:22.562Z,100526.33
2019-05-26T11:21:48.777Z,100521.20
2019-05-26T11:24:15.436Z,100518.83
2019-05-26T11:26:41.649Z,100517.06
2019-05-26T11:29:07.955Z,100512.80
2019-05-26T11:31:34.273Z,100508.39
2019-05-26T11:34:00.591Z,100510.61
2019-05-26T11:36:26.862Z,100513.09
2019-05-26T11:38:53.246Z,100507.82
2019-05-26T11:41:19.508Z,100511.61
2019-05-26T11:43:45.764Z,100510.34
2019-05-26T11:46:11.959Z,100513.48
2019-05-26T11:48:39.309Z,100513.84
2019-05-26T11:51:05.984Z,100493.09
2019-05-26T11:53:32.309Z,100499.14
2019-05-26T11:55:58.507Z,100494.81
2019-05-26T11:58:24.708Z,100494.27
2019-05-26T12:00:50.894Z,100485.17
2019-05-26T12:03:17.032Z,100484.13
2019-05-26T12:05:43.618Z,100480.92
2019-05-26T12:08:10.049Z,100474.12
2019-05-26T12:10:37.055Z,100476.73
2019-05-26T12:13:03.392Z,100471.73
2019-05-26T12:15:29.734Z,100465.70
2019-05-26T12:17:56.109Z,100465.45
2019-05-26T12:20:22.412Z,100448.28
2019-05-26T12:22:48.681Z,100453.87
2019-05-26T12:25:14.972Z,100438.39
2019-05-26T12:27:41.187Z,100448.66
2019-05-26T12:30:08.921Z,100453.28
2019-05-26T12:32:35.187Z,100445.23
2019-05-26T12:35:01.527Z,100450.22
2019-05-26T12:37:27.901Z,100441.20
2019-05-26T12:39:55.131Z,100438.53
2019-05-26T12:42:21.607Z,100441.11
2019-05-26T12:44:49.810Z,100429.99
2019-05-26T12:47:17.538Z,100430.28
2019-05-26T12:49:43.901Z,100431.34
2019-05-26T12:52:10.309Z,100429.22
2019-05-26T12:54:36.435Z,100432.29
2019-05-26T12:57:02.793Z,100438.48
2019-05-26T12:59:29.195Z,100428.84
2019-05-26T13:01:55.526Z,100423.96
2019-05-26T13:04:21.979Z,100421.55
2019-05-26T13:06:48.209Z,100420.44
2019-05-26T13:09:14.913Z,100411.30
2019-05-26T13:11:41.278Z,100420.36
2019-05-26T13:14:07.472Z,100418.78
2019-05-26T13:16:35.821Z,100408.42
2019-05-26T13:19:02.069Z,100409.74
2019-05-26T13:21:28.383Z,100413.09
2019-05-26T13:23:54.691Z,100411.77
2019-05-26T13:26:21.086Z,100399.09
2019-05-26T13:28:47.441Z,100403.89
2019-05-26T13:31:13.832Z,100392.05
2019-05-26T13:33:40.255Z,100404.25
2019-05-26T13:36:06.736Z,100394.66
2019-05-26T13:38:33.027Z,100392.50
2019-05-26T13:40:59.244Z,100397.34
2019-05-26T13:43:25.642Z,100387.22
2019-05-26T13:45:51.982Z,100390.67
2019-05-26T13:48:18.144Z,100393.39
2019-05-26T13:50:44.411Z,100377.69
2019-05-26T13:53:10.700Z,100377.79
2019-05-26T13:55:36.896Z,100376.89
2019-05-26T13:58:03.603Z,100365.56
2019-05-26T14:00:30.168Z,100359.08
2019-05-26T14:02:56.593Z,100363.61
2019-05-26T14:05:23.136Z,100362.14
2019-05-26T14:07:49.885Z,100369.50
2019-05-26T14:10:29.191Z,100356.33
2019-05-26T14:12:55.778Z,100356.94
2019-05-26T14:15:36.883Z,100354.75
2019-05-26T14:17:51.798Z,100353.50
2019-05-26T14:20:21.848Z,100360.14
2019-05-26T14:22:49.719Z,100357.77
2019-05-26T14:25:16.001Z,100352.87
2019-05-26T14:27:42.428Z,100345.78
2019-05-26T14:30:08.875Z,100348.59
2019-05-26T14:32:35.011Z,100343.83
2019-05-26T14:35:01.495Z,100342.66
2019-05-26T14:37:27.815Z,100337.80
2019-05-26T14:39:54.299Z,100335.05
2019-05-26T14:42:20.583Z,100335.84
2019-05-26T14:44:46.778Z,100330.63
2019-05-26T14:47:12.994Z,100333.94
2019-05-26T14:49:40.468Z,100322.45
2019-05-26T14:52:06.722Z,100325.23
2019-05-26T14:54:32.986Z,100327.58
2019-05-26T14:56:59.170Z,100336.77
2019-05-26T14:59:25.415Z,100325.93
2019-05-26T15:01:51.676Z,100321.91
2019-05-26T15:04:18.094Z,100324.47
2019-05-26T15:06:44.195Z,100323.45
2019-05-26T15:09:24.267Z,100322.53
2019-05-26T15:11:38.520Z,100324.92
2019-05-26T15:14:04.837Z,100317.05
2019-05-26T15:16:31.068Z,100322.36
2019-05-26T15:18:57.353Z,100313.70
2019-05-26T15:21:23.494Z,100311.06
2019-05-26T15:23:49.685Z,100311.59
2019-05-26T15:26:16.104Z,100307.57
2019-05-26T15:28:42.480Z,100304.98
2019-05-26T15:31:10.219Z,100295.33
2019-05-26T15:33:36.379Z,100291.84
2019-05-26T15:36:02.692Z,100290.52
2019-05-26T15:38:42.093Z,100279.08
2019-05-26T15:40:57.056Z,100298.00
2019-05-26T15:43:23.303Z,100284.79
2019-05-26T15:45:49.534Z,100282.52
2019-05-26T15:48:15.783Z,100282.99
2019-05-26T15:50:42.140Z,100282.05
2019-05-26T15:53:08.282Z,100281.98
2019-05-26T15:55:34.550Z,100283.61
2019-05-26T15:58:00.932Z,100278.26
2019-05-26T16:00:27.379Z,100276.70
2019-05-26T16:02:53.577Z,100276.77
2019-05-26T16:05:19.875Z,100265.13
2019-05-26T16:07:46.139Z,100265.09
2019-05-26T16:10:12.384Z,100263.77
2019-05-26T16:12:38.679Z,100267.74
2019-05-26T16:15:06.635Z,100263.23
2019-05-26T16:17:33.220Z,100249.55
2019-05-26T16:19:59.487Z,100264.25
2019-05-26T16:22:25.682Z,100257.23
2019-05-26T16:24:51.884Z,100245.92
2019-05-26T16:27:19.881Z,100244.13
2019-05-26T16:29:46.827Z,100246.97
2019-05-26T16:32:13.114Z,100240.86
2019-05-26T16:34:39.324Z,100238.22
2019-05-26T16:37:05.669Z,100232.88
2019-05-26T16:39:37.091Z,100238.53
2019-05-26T16:42:00.165Z,100235.41
2019-05-26T16:44:26.394Z,100233.92
2019-05-26T16:46:56.423Z,100234.40
2019-05-26T16:49:20.891Z,100240.39
2019-05-26T16:51:47.196Z,100228.70
2019-05-26T16:54:13.503Z,100223.80
2019-05-26T16:56:39.781Z,100226.47
2019-05-26T16:59:06.198Z,100213.23
2019-05-26T17:01:32.381Z,100213.25
2019-05-26T17:03:58.503Z,100208.88
2019-05-26T17:06:24.790Z,100211.92
2019-05-26T17:08:51.146Z,100205.41
2019-05-26T17:11:17.501Z,100202.30
2019-05-26T17:13:43.978Z,100198.86
2019-05-26T17:16:10.100Z,100200.19
2019-05-26T17:18:36.434Z,100199.27
2019-05-26T17:21:02.857Z,100201.52
2019-05-26T17:23:29.186Z,100200.19
2019-05-26T17:25:55.431Z,100218.23
2019-05-26T17:28:21.681Z,100205.47
2019-05-26T17:30:49.121Z,100196.68
2019-05-26T17:33:15.357Z,100185.73
2019-05-26T17:35:41.612Z,100191.05
2019-05-26T17:38:07.876Z,100191.05
2019-05-26T17:40:34.260Z,100196.87
2019-05-26T17:43:00.575Z,100188.50
2019-05-26T17:45:26.921Z,100184.60
2019-05-26T17:47:53.093Z,100186.01
2019-05-26T17:50:19.509Z,100194.44
2019-05-26T17:52:45.843Z,100195.32
2019-05-26T17:55:12.449Z,100191.80
2019-05-26T17:57:38.784Z,100191.02
2019-05-26T18:00:10.099Z,100196.79
2019-05-26T18:02:37.049Z,100193.82
2019-05-26T18:05:04.141Z,100191.18
2019-05-26T18:07:31.339Z,100192.09
2019-05-26T18:09:57.604Z,100189.45
2019-05-26T18:12:23.862Z,100185.05
2019-05-26T18:14:50.212Z,100186.41
2019-05-26T18:17:16.536Z,100176.27
2019-05-26T18:19:42.897Z,100174.14
2019-05-26T18:22:09.232Z,100177.19
2019-05-26T18:24:35.714Z,100177.19
2019-05-26T18:27:01.984Z,100175.80
2019-05-26T18:29:28.391Z,100170.05
2019-05-26T18:31:54.741Z,100171.36
2019-05-26T18:34:20.946Z,100171.36
2019-05-26T18:36:47.198Z,100166.06
2019-05-26T18:39:13.352Z,100165.09
2019-05-26T18:41:39.565Z,100170.76
2019-05-26T18:44:06.280Z,100160.65
2019-05-26T18:46:33.647Z,100167.71
2019-05-26T18:48:59.843Z,100161.56
2019-05-26T18:51:26.092Z,100161.17
2019-05-26T18:53:52.412Z,100160.34
2019-05-26T18:56:18.807Z,100165.30
2019-05-26T18:58:45.131Z,100156.59
2019-05-26T19:01:11.654Z,100165.96
2019-05-26T19:03:38.033Z,100164.67
2019-05-26T19:06:04.278Z,100159.53
2019-05-26T19:08:30.586Z,100158.35
2019-05-26T19:10:57.119Z,100158.86
2019-05-26T19:13:23.553Z,100161.17
2019-05-26T19:15:49.992Z,100150.55
2019-05-26T19:18:20.289Z,100158.09
2019-05-26T19:20:44.400Z,100152.47
2019-05-26T19:23:10.609Z,100151.67
2019-05-26T19:25:36.971Z,100147.33
2019-05-26T19:28:03.563Z,100157.91
2019-05-26T19:30:30.872Z,100151.73
2019-05-26T19:32:57.203Z,100151.76
2019-05-26T19:35:23.855Z,100155.33
2019-05-26T19:37:49.987Z,100147.47
2019-05-26T19:40:16.818Z,100142.66
2019-05-26T19:42:43.330Z,100141.28
2019-05-26T19:45:10.051Z,100144.84
2019-05-26T19:47:36.533Z,100139.23
2019-05-26T19:50:07.870Z,100140.55
2019-05-26T19:52:34.295Z,100148.42
2019-05-26T19:55:00.758Z,100142.72
2019-05-26T19:57:27.112Z,100139.81
2019-05-26T19:59:53.429Z,100137.23
2019-05-26T20:02:19.621Z,100141.59
2019-05-26T20:04:46.079Z,100136.40
2019-05-26T20:07:12.485Z,100142.12
2019-05-26T20:09:38.837Z,100135.58
2019-05-26T20:12:05.153Z,100141.67
2019-05-26T20:14:31.504Z,100135.85
2019-05-26T20:16:58.982Z,100130.30
2019-05-26T20:19:25.333Z,100131.13
2019-05-26T20:21:51.512Z,100125.91
2019-05-26T20:24:17.923Z,100125.95
2019-05-26T20:26:44.037Z,100129.50
2019-05-26T20:29:10.352Z,100127.80
2019-05-26T20:31:36.707Z,100124.36
2019-05-26T20:34:03.174Z,100123.95
2019-05-26T20:36:29.452Z,100120.97
2019-05-26T20:38:55.647Z,100120.58
2019-05-26T20:41:22.017Z,100115.80
2019-05-26T20:43:48.438Z,100120.28
2019-05-26T20:46:14.680Z,100122.13
2019-05-26T20:48:41.041Z,100121.37
2019-05-26T20:51:07.491Z,100128.42
2019-05-26T20:53:34.868Z,100126.79
2019-05-26T20:56:01.161Z,100123.30
2019-05-26T20:58:28.010Z,100119.86
2019-05-26T21:00:54.221Z,100120.88
2019-05-26T21:03:20.431Z,100111.61
2019-05-26T21:05:46.674Z,100110.76
2019-05-26T21:08:12.954Z,100115.25
2019-05-26T21:10:39.075Z,100107.86
2019-05-26T21:13:05.355Z,100108.73
2019-05-26T21:15:31.433Z,100106.53
2019-05-26T21:17:57.659Z,100107.04
2019-05-26T21:20:24.001Z,100102.83
2019-05-26T21:22:50.489Z,100100.19
2019-05-26T21:25:16.881Z,100089.70
2019-05-26T21:27:42.979Z,100101.05
2019-05-26T21:30:09.760Z,100092.30
2019-05-26T21:32:36.080Z,100093.28
2019-05-26T21:35:04.311Z,100095.09
2019-05-26T21:37:30.766Z,100104.77
2019-05-26T21:39:56.922Z,100101.95
2019-05-26T21:42:23.079Z,100094.52
2019-05-26T21:44:49.353Z,100096.25
2019-05-26T21:47:15.565Z,100091.92
2019-05-26T21:49:41.823Z,100095.88
2019-05-26T21:52:08.013Z,100086.30
2019-05-26T21:54:34.149Z,100084.66
2019-05-26T21:57:01.381Z,100084.66
2019-05-26T21:59:27.748Z,100087.41
2019-05-26T22:01:54.113Z,100084.86
2019-05-26T22:04:20.219Z,100091.02
2019-05-26T22:06:46.478Z,100086.59
2019-05-26T22:09:12.683Z,100088.48
2019-05-26T22:11:38.821Z,100084.00
2019-05-26T22:14:04.994Z,100085.77
2019-05-26T22:16:31.211Z,100088.88
2019-05-26T22:19:00.144Z,100091.03
2019-05-26T22:21:25.322Z,100091.92
2019-05-26T22:23:51.556Z,100090.20
2019-05-26T22:26:18.007Z,100091.11
2019-05-26T22:28:44.125Z,100092.50
2019-05-26T22:31:10.326Z,100090.31
2019-05-26T22:33:36.520Z,100090.77
2019-05-26T22:36:02.931Z,100080.70
2019-05-26T22:38:29.125Z,100081.97
2019-05-26T22:40:55.231Z,100080.24
2019-05-26T22:43:21.330Z,100082.42
2019-05-26T22:45:47.549Z,100079.38
2019-05-26T22:48:13.740Z,100079.41
2019-05-26T22:50:39.969Z,100067.58
2019-05-26T22:53:06.222Z,100079.00
2019-05-26T22:55:32.586Z,100073.78
2019-05-26T22:57:58.713Z,100071.08
2019-05-26T23:00:25.405Z,100071.00
2019-05-26T23:02:51.503Z,100066.23
2019-05-26T23:05:17.919Z,100063.18
2019-05-26T23:07:44.128Z,100063.22
2019-05-26T23:10:10.639Z,100061.45
2019-05-26T23:12:37.022Z,100055.30
2019-05-26T23:15:06.464Z,100063.59
2019-05-26T23:17:32.579Z,100055.22
2019-05-26T23:19:58.689Z,100058.30
2019-05-26T23:22:24.759Z,100048.11
2019-05-26T23:24:51.057Z,100050.41
2019-05-26T23:27:17.139Z,100042.97
2019-05-26T23:29:43.358Z,100049.09
2019-05-26T23:32:09.454Z,100044.77
2019-05-26T23:34:35.576Z,100035.19
2019-05-26T23:37:01.749Z,100039.17
2019-05-26T23:39:28.270Z,100041.42
2019-05-26T23:41:54.375Z,100041.46
2019-05-26T23:44:20.585Z,100036.17
2019-05-26T23:46:46.810Z,100043.22
2019-05-26T23:49:12.937Z,100044.09
2019-05-26T23:51:39.066Z,100042.36
2019-05-26T23:54:05.157Z,100044.13
2019-05-26T23:56:31.269Z,100046.75
2019-05-26T23:58:57.367Z,100040.63
